createdAt,value
2023-01-20T00:03:29.600Z,97097.50
2023-01-20T00:08:30.932Z,97109.53
2023-01-20T00:13:32.506Z,97110.38
2023-01-20T00:18:34.835Z,97112.16
2023-01-20T00:23:36.149Z,97116.75
2023-01-20T00:28:37.477Z,97118.56
2023-01-20T00:33:38.957Z,97120.63
2023-01-20T00:38:40.486Z,97131.03
2023-01-20T00:43:42.320Z,97134.66
2023-01-20T00:48:43.719Z,97134.94
2023-01-20T00:53:45.046Z,97143.84
2023-01-20T00:58:46.420Z,97153.00
2023-01-20T01:03:47.789Z,97162.72
2023-01-20T01:08:49.190Z,97171.16
2023-01-20T01:13:50.661Z,97182.34
2023-01-20T01:18:55.126Z,97194.53
2023-01-20T01:23:56.524Z,97198.69
2023-01-20T01:28:59.040Z,97204.78
2023-01-20T01:34:00.357Z,97211.69
2023-01-20T01:39:01.699Z,97217.41
2023-01-20T01:44:10.397Z,97215.88
2023-01-20T01:49:20.748Z,97215.88
2023-01-20T01:54:23.682Z,97227.22
2023-01-20T01:59:25.024Z,97221.53
2023-01-20T02:04:27.916Z,97220.56
2023-01-20T02:09:29.977Z,97231.78
2023-01-20T02:14:33.756Z,97227.19
2023-01-20T02:19:53.629Z,97230.56
2023-01-20T02:25:14.083Z,97232.25
2023-01-20T02:30:37.534Z,97234.72
2023-01-20T02:35:45.431Z,97235.25
2023-01-20T02:40:53.381Z,97243.84
2023-01-20T02:46:01.706Z,97245.41
2023-01-20T02:51:07.568Z,97249.41
2023-01-20T02:56:09.570Z,97262.69
2023-01-20T03:01:13.588Z,97262.69
2023-01-20T03:06:19.681Z,97264.22
2023-01-20T03:11:21.105Z,97268.53
2023-01-20T03:16:24.170Z,97271.59
2023-01-20T03:21:25.700Z,97276.00
2023-01-20T03:26:27.384Z,97288.19
2023-01-20T03:31:30.903Z,97293.44
2023-01-20T03:36:32.598Z,97298.03
2023-01-20T03:41:34.668Z,97302.88
2023-01-20T03:46:45.239Z,97305.13
2023-01-20T03:52:04.615Z,97300.69
2023-01-20T03:57:14.542Z,97303.88
2023-01-20T04:02:16.012Z,97305.53
2023-01-20T04:07:20.416Z,97312.44
2023-01-20T04:12:21.829Z,97313.00
2023-01-20T04:17:26.912Z,97321.44
2023-01-20T04:22:31.702Z,97328.38
2023-01-20T04:27:33.077Z,97334.47
2023-01-20T04:32:34.376Z,97333.91
2023-01-20T04:37:35.730Z,97340.81
2023-01-20T04:42:37.385Z,97341.34
2023-01-20T04:47:38.909Z,97346.88
2023-01-20T04:52:40.250Z,97359.75
2023-01-20T04:57:41.611Z,97369.28
2023-01-20T05:02:42.931Z,97377.63
2023-01-20T05:07:44.296Z,97373.19
2023-01-20T05:12:45.608Z,97379.00
2023-01-20T05:17:47.228Z,97387.31
2023-01-20T05:22:48.556Z,97388.72
2023-01-20T05:27:49.912Z,97396.88
2023-01-20T05:32:52.013Z,97400.59
2023-01-20T05:37:54.501Z,97403.63
2023-01-20T05:42:59.227Z,97411.91
2023-01-20T05:48:00.805Z,97414.69
2023-01-20T05:53:02.131Z,97424.13
2023-01-20T05:58:03.855Z,97432.41
2023-01-20T06:03:05.199Z,97439.91
2023-01-20T06:08:06.527Z,97446.56
2023-01-20T06:13:07.988Z,97449.63
2023-01-20T06:18:12.690Z,97451.28
2023-01-20T06:23:14.007Z,97450.72
2023-01-20T06:28:15.375Z,97444.19
2023-01-20T06:33:16.699Z,97454.28
2023-01-20T06:38:18.005Z,97471.75
2023-01-20T06:43:19.337Z,97474.22
2023-01-20T06:48:20.746Z,97479.09
2023-01-20T06:53:22.169Z,97495.28
2023-01-20T06:58:24.845Z,97490.72
2023-01-20T07:03:26.169Z,97488.63
2023-01-20T07:08:27.956Z,97491.81
2023-01-20T07:13:29.269Z,97506.88
2023-01-20T07:18:30.590Z,97513.66
2023-01-20T07:23:36.116Z,97526.81
2023-01-20T07:28:38.036Z,97538.41
2023-01-20T07:33:39.422Z,97538.00
2023-01-20T07:38:40.999Z,97561.94
2023-01-20T07:43:43.132Z,97557.34
2023-01-20T07:48:44.679Z,97570.50
2023-01-20T07:53:50.830Z,97577.44
2023-01-20T07:58:52.794Z,97579.09
2023-01-20T08:03:54.417Z,97578.13
2023-01-20T08:08:58.695Z,97587.69
2023-01-20T08:14:00.198Z,97597.13
2023-01-20T08:19:01.579Z,97597.81
2023-01-20T08:24:05.410Z,97598.53
2023-01-20T08:29:08.299Z,97614.88
2023-01-20T08:34:09.860Z,97618.22
2023-01-20T08:39:13.796Z,97628.34
2023-01-20T08:44:15.942Z,97640.13
2023-01-20T08:49:17.513Z,97637.81
2023-01-20T08:54:19.394Z,97648.91
2023-01-20T08:59:20.979Z,97656.16
2023-01-20T09:04:22.299Z,97657.44
2023-01-20T09:09:23.713Z,97660.50
2023-01-20T09:14:25.177Z,97664.91
2023-01-20T09:19:26.561Z,97668.28
2023-01-20T09:24:28.120Z,97669.22
2023-01-20T09:29:29.509Z,97682.25
2023-01-20T09:34:31.000Z,97681.16
2023-01-20T09:39:51.139Z,97684.88
2023-01-20T09:45:25.027Z,97678.53
2023-01-20T09:50:45.350Z,97682.66
2023-01-20T09:55:50.315Z,97683.53
2023-01-20T10:00:55.930Z,97685.75
2023-01-20T10:05:59.396Z,97691.47
2023-01-20T10:11:07.465Z,97688.44
2023-01-20T10:16:12.346Z,97692.16
2023-01-20T10:21:27.781Z,97688.28
2023-01-20T10:26:41.977Z,97692.94
2023-01-20T10:31:46.997Z,97689.63
2023-01-20T10:36:56.028Z,97698.47
2023-01-20T10:42:05.128Z,97698.47
2023-01-20T10:52:40.357Z,97699.38
2023-01-20T10:57:41.744Z,97706.03
2023-01-20T11:02:43.601Z,97714.75
2023-01-20T11:07:46.108Z,97719.91
2023-01-20T11:12:51.259Z,97725.72
2023-01-20T11:18:11.234Z,97725.22
2023-01-20T11:23:38.941Z,97724.50
2023-01-20T11:28:50.210Z,97728.78
2023-01-20T11:33:55.699Z,97736.13
2023-01-20T11:38:57.646Z,97735.84
2023-01-20T11:43:59.880Z,97741.53
2023-01-20T11:49:13.568Z,97745.50
2023-01-20T11:54:16.190Z,97748.41
2023-01-20T11:59:28.846Z,97757.28
2023-01-20T12:04:33.177Z,97771.59
2023-01-20T12:09:38.352Z,97770.09
2023-01-20T12:14:42.883Z,97782.03
2023-01-20T12:20:05.317Z,97784.22
2023-01-20T12:25:14.908Z,97790.16
2023-01-20T12:30:23.093Z,97792.84
2023-01-20T12:35:28.810Z,97800.13
2023-01-20T12:40:35.648Z,97794.94
2023-01-20T12:45:37.090Z,97802.75
2023-01-20T12:50:57.368Z,97803.88
2023-01-20T12:56:07.890Z,97811.81
2023-01-20T13:01:12.277Z,97818.34
2023-01-20T13:06:16.714Z,97823.34
2023-01-20T13:11:36.702Z,97831.16
2023-01-20T13:16:47.071Z,97832.25
2023-01-20T13:22:06.500Z,97834.88
2023-01-20T13:27:09.904Z,97834.44
2023-01-20T13:32:31.798Z,97835.69
2023-01-20T13:37:37.806Z,97841.94
2023-01-20T13:42:39.301Z,97847.72
2023-01-20T13:47:59.088Z,97853.00
2023-01-20T13:53:00.488Z,97849.38
2023-01-20T13:58:02.072Z,97851.19
2023-01-20T14:03:11.736Z,97853.81
2023-01-20T14:08:14.050Z,97866.19
2023-01-20T14:13:20.328Z,97868.94
2023-01-20T14:18:22.869Z,97872.66
2023-01-20T14:23:26.228Z,97879.16
2023-01-20T14:28:27.852Z,97886.97
2023-01-20T14:33:29.199Z,97883.47
2023-01-20T14:38:30.761Z,97894.53
2023-01-20T14:43:32.906Z,97903.66
2023-01-20T14:48:35.194Z,97907.28
2023-01-20T14:53:36.655Z,97901.69
2023-01-20T14:58:44.144Z,97927.56
2023-01-20T15:03:45.501Z,97931.03
2023-01-20T15:09:04.443Z,97931.19
2023-01-20T15:14:10.858Z,97958.97
2023-01-20T15:19:22.662Z,97959.50
2023-01-20T15:24:30.351Z,97961.56
2023-01-20T15:29:33.606Z,97971.41
2023-01-20T15:34:34.945Z,97973.31
2023-01-20T15:39:36.248Z,97983.13
2023-01-20T15:44:37.739Z,97984.09
2023-01-20T15:49:39.248Z,97987.22
2023-01-20T15:54:40.569Z,97992.28
2023-01-20T15:59:45.175Z,97998.28
2023-01-20T16:04:46.782Z,98005.47
2023-01-20T16:09:48.438Z,98005.47
2023-01-20T16:14:49.763Z,98006.44
2023-01-20T16:19:51.610Z,98010.16
2023-01-20T16:24:53.019Z,98018.16
2023-01-20T16:29:55.827Z,98021.78
2023-01-20T16:34:57.146Z,98025.34
2023-01-20T16:39:58.642Z,98039.22
2023-01-20T16:44:59.983Z,98049.75
2023-01-20T16:50:01.412Z,98057.53
2023-01-20T16:55:03.893Z,98065.31
2023-01-20T17:00:06.078Z,98071.16
2023-01-20T17:05:08.127Z,98075.09
2023-01-20T17:10:09.893Z,98083.47
2023-01-20T17:15:11.478Z,98080.47
2023-01-20T17:20:12.847Z,98091.00
2023-01-20T17:25:17.977Z,98096.84
2023-01-20T17:30:19.557Z,98100.44
2023-01-20T17:35:21.101Z,98105.97
2023-01-20T17:40:22.481Z,98104.53
2023-01-20T17:45:23.843Z,98110.63
2023-01-20T17:50:26.556Z,98125.38
2023-01-20T17:55:28.028Z,98123.56
2023-01-20T18:00:29.466Z,98130.88
2023-01-20T18:05:31.120Z,98132.06
2023-01-20T18:10:32.502Z,98129.66
2023-01-20T18:15:35.602Z,98141.41
2023-01-20T18:20:37.055Z,98143.06
2023-01-20T18:25:38.378Z,98155.28
2023-01-20T18:30:39.934Z,98160.19
2023-01-20T18:35:41.310Z,98164.59
2023-01-20T18:40:42.651Z,98161.00
2023-01-20T18:45:44.073Z,98169.88
2023-01-20T18:50:45.521Z,98166.28
2023-01-20T18:55:47.012Z,98169.88
2023-01-20T19:00:48.334Z,98169.16
2023-01-20T19:05:49.728Z,98175.50
2023-01-20T19:10:51.058Z,98179.31
2023-01-20T19:15:52.799Z,98178.25
2023-01-20T19:20:54.334Z,98177.53
2023-01-20T19:26:01.323Z,98182.91
2023-01-20T19:31:10.375Z,98188.28
2023-01-20T19:36:13.037Z,98184.69
2023-01-20T19:41:16.003Z,98182.78
2023-01-20T19:46:18.554Z,98189.25
2023-01-20T19:51:20.104Z,98196.63
2023-01-20T19:56:21.491Z,98195.31
2023-01-20T20:01:24.584Z,98197.34
2023-01-20T20:06:30.616Z,98195.81
2023-01-20T20:11:32.516Z,98204.41
2023-01-20T20:16:35.457Z,98219.34
2023-01-20T20:21:36.833Z,98215.75
2023-01-20T20:26:38.290Z,98221.00
2023-01-20T20:31:40.690Z,98229.03
2023-01-20T20:36:42.090Z,98237.25
2023-01-20T20:41:43.988Z,98239.88
2023-01-20T20:46:45.531Z,98252.81
2023-01-20T20:51:47.526Z,98252.56
2023-01-20T20:56:49.157Z,98255.56
2023-01-20T21:01:51.514Z,98247.06
2023-01-20T21:06:52.860Z,98243.47
2023-01-20T21:11:54.533Z,98261.66
2023-01-20T21:16:56.076Z,98264.53
2023-01-20T21:21:57.376Z,98272.19
2023-01-20T21:26:59.880Z,98281.75
2023-01-20T21:32:01.205Z,98279.13
2023-01-20T21:37:02.590Z,98290.25
2023-01-20T21:42:05.976Z,98285.63
2023-01-20T21:47:07.924Z,98293.50
2023-01-20T21:52:31.941Z,98292.78
2023-01-20T21:57:33.653Z,98296.38
2023-01-20T22:02:35.157Z,98294.91
2023-01-20T22:07:36.990Z,98306.38
2023-01-20T22:12:38.336Z,98315.47
2023-01-20T22:17:41.245Z,98323.66
2023-01-20T22:22:42.742Z,98323.81
2023-01-20T22:27:44.060Z,98324.63
2023-01-20T22:32:45.489Z,98333.50
2023-01-20T22:37:46.799Z,98331.69
2023-01-20T22:42:48.259Z,98326.66
2023-01-20T22:47:49.576Z,98326.53
2023-01-20T22:52:50.890Z,98330.44
2023-01-20T22:57:52.316Z,98325.41
2023-01-20T23:02:53.699Z,98325.53
2023-01-20T23:07:55.017Z,98332.69
2023-01-20T23:12:56.344Z,98334.59
2023-01-20T23:17:57.658Z,98330.19
2023-01-20T23:23:00.742Z,98330.19
2023-01-20T23:28:02.211Z,98336.72
2023-01-20T23:33:03.933Z,98338.38
2023-01-20T23:38:06.064Z,98339.22
2023-01-20T23:43:07.369Z,98340.91
2023-01-20T23:48:08.745Z,98353.09
2023-01-20T23:53:10.048Z,98362.16
2023-01-20T23:58:11.610Z,98357.13
